createdAt,value
2019-05-23T00:02:33.567Z,99.90
2019-05-23T00:16:21.353Z,99.90
2019-05-23T00:21:21.916Z,99.90
2019-05-23T00:26:22.686Z,99.90
2019-05-23T00:34:15.272Z,99.90
2019-05-23T00:49:16.083Z,99.90
2019-05-23T00:51:46.361Z,99.90
2019-05-23T00:59:26.668Z,99.90
2019-05-23T01:04:19.067Z,99.90
2019-05-23T01:06:49.726Z,99.90
2019-05-23T01:16:51.039Z,99.90
2019-05-23T01:24:34.344Z,99.90
2019-05-23T01:27:05.997Z,99.90
2019-05-23T01:29:49.705Z,99.90
2019-05-23T01:32:31.493Z,99.90
2019-05-23T01:35:03.784Z,99.90
2019-05-23T01:40:07.011Z,99.90
2019-05-23T01:47:38.575Z,99.90
2019-05-23T02:00:12.137Z,99.90
2019-05-23T02:02:42.239Z,99.90
2019-05-23T02:20:17.023Z,99.90
2019-05-23T02:27:48.351Z,99.90
2019-05-23T02:30:34.281Z,99.90
2019-05-23T02:43:24.563Z,99.90
2019-05-23T02:45:58.906Z,99.90
2019-05-23T02:51:07.283Z,99.90
2019-05-23T02:53:39.570Z,99.90
2019-05-23T03:24:58.888Z,99.90
2019-05-23T03:27:30.326Z,99.90
2019-05-23T03:35:36.351Z,99.90
2019-05-23T03:40:36.309Z,99.90
2019-05-23T03:43:08.380Z,99.90
2019-05-23T03:45:40.500Z,99.90
2019-05-23T03:48:11.651Z,99.90
2019-05-23T03:58:12.758Z,99.90
2019-05-23T04:10:51.655Z,77.20
2019-05-23T04:18:19.104Z,62.60
2019-05-23T04:23:19.859Z,58.60
2019-05-23T04:25:50.536Z,56.90
2019-05-23T04:30:50.214Z,55.20
2019-05-23T04:33:20.276Z,48.50
2019-05-23T04:43:19.168Z,48.40
2019-05-23T04:45:49.977Z,46.80
2019-05-23T04:48:20.649Z,38.10
2019-05-23T04:53:20.027Z,39.40
2019-05-23T04:55:50.445Z,43.80
2019-05-23T04:58:20.251Z,45.10
2019-05-23T05:00:50.037Z,46.90
2019-05-23T05:03:20.961Z,47.20
2019-05-23T05:08:21.980Z,47.10
2019-05-23T05:10:51.820Z,44.80
2019-05-23T05:13:22.610Z,37.70
2019-05-23T05:25:53.360Z,44.50
2019-05-23T05:28:23.167Z,44.60
2019-05-23T05:33:22.392Z,44.30
2019-05-23T05:40:50.766Z,43.10
2019-05-23T05:43:21.234Z,38.40
2019-05-23T05:48:20.130Z,42.20
2019-05-23T05:50:49.954Z,43.60
2019-05-23T05:53:19.858Z,43.40
2019-05-23T05:55:49.962Z,45.30
2019-05-23T05:58:19.791Z,45.40
2019-05-23T06:03:30.013Z,45.00
2019-05-23T06:06:18.331Z,41.50
2019-05-23T06:11:20.785Z,43.70
2019-05-23T06:13:50.532Z,38.70
2019-05-23T06:16:20.575Z,43.40
2019-05-23T06:21:25.948Z,44.60
2019-05-23T06:23:55.868Z,43.50
2019-05-23T06:31:25.197Z,44.40
2019-05-23T06:33:55.465Z,43.10
2019-05-23T06:51:25.906Z,42.60
2019-05-23T06:58:54.324Z,47.00
2019-05-23T07:01:24.211Z,45.50
2019-05-23T07:03:54.257Z,45.30
2019-05-23T07:06:25.091Z,45.90
2019-05-23T07:08:55.133Z,49.00
2019-05-23T07:13:54.366Z,52.80
2019-05-23T07:23:53.188Z,56.00
2019-05-23T07:26:22.946Z,54.30
2019-05-23T07:28:53.134Z,53.70
2019-05-23T07:31:23.073Z,55.00
2019-05-23T07:34:01.714Z,58.10
2019-05-23T07:48:51.994Z,53.50
2019-05-23T07:51:22.173Z,53.50
2019-05-23T07:54:08.805Z,53.60
2019-05-23T07:56:38.934Z,57.20
2019-05-23T07:59:10.407Z,58.10
2019-05-23T08:01:42.248Z,62.10
2019-05-23T08:09:13.276Z,57.60
2019-05-23T08:16:42.490Z,57.60
2019-05-23T08:21:41.447Z,56.60
2019-05-23T08:26:45.234Z,55.80
2019-05-23T08:34:15.805Z,55.80
2019-05-23T08:36:45.748Z,56.10
2019-05-23T08:41:45.746Z,54.40
2019-05-23T08:49:14.668Z,61.70
2019-05-23T08:51:44.528Z,62.70
2019-05-23T08:54:14.283Z,62.20
2019-05-23T08:59:14.498Z,62.20
2019-05-23T09:04:13.744Z,63.10
2019-05-23T09:09:28.478Z,65.70
2019-05-23T09:11:45.410Z,66.80
2019-05-23T09:19:13.993Z,69.40
2019-05-23T09:21:43.811Z,70.60
2019-05-23T09:24:13.579Z,71.10
2019-05-23T09:26:43.455Z,72.70
2019-05-23T09:29:13.525Z,73.10
2019-05-23T09:31:43.542Z,73.60
2019-05-23T09:34:13.365Z,75.00
2019-05-23T09:39:15.163Z,75.40
2019-05-23T09:51:42.460Z,76.10
2019-05-23T09:54:12.933Z,76.60
2019-05-23T09:56:43.022Z,77.80
2019-05-23T10:04:11.792Z,78.40
2019-05-23T10:16:42.339Z,78.90
2019-05-23T10:21:41.692Z,78.30
2019-05-23T10:26:40.800Z,80.00
2019-05-23T10:29:10.547Z,76.30
2019-05-23T10:34:09.757Z,80.10
2019-05-23T10:36:39.472Z,72.00
2019-05-23T10:39:12.822Z,74.50
2019-05-23T10:44:12.234Z,76.50
2019-05-23T10:46:44.565Z,79.10
2019-05-23T10:51:44.318Z,78.20
2019-05-23T10:56:43.607Z,80.10
2019-05-23T10:59:13.499Z,79.70
2019-05-23T11:01:47.199Z,81.50
2019-05-23T11:04:16.995Z,81.60
2019-05-23T11:11:46.296Z,73.50
2019-05-23T11:19:14.881Z,87.30
2019-05-23T11:21:44.641Z,88.10
2019-05-23T11:26:44.893Z,88.10
2019-05-23T11:31:43.943Z,89.70
2019-05-23T11:34:13.665Z,90.80
2019-05-23T11:39:13.999Z,91.40
2019-05-23T11:51:41.799Z,90.20
2019-05-23T11:54:11.644Z,91.50
2019-05-23T11:56:42.328Z,92.30
2019-05-23T12:01:59.484Z,93.20
2019-05-23T12:12:21.038Z,90.80
2019-05-23T12:14:50.827Z,71.20
2019-05-23T12:29:48.318Z,92.00
2019-05-23T12:32:18.400Z,90.40
2019-05-23T12:35:08.651Z,90.30
2019-05-23T12:39:51.081Z,90.60
2019-05-23T12:47:37.835Z,79.60
2019-05-23T12:57:39.814Z,90.80
2019-05-23T13:10:15.492Z,92.70
2019-05-23T13:17:44.146Z,90.40
2019-05-23T13:22:43.461Z,91.40
2019-05-23T13:30:13.065Z,92.30
2019-05-23T13:40:12.381Z,93.50
2019-05-23T13:50:10.433Z,93.00
2019-05-23T13:55:10.723Z,91.50
2019-05-23T13:57:40.512Z,91.50
2019-05-23T14:15:11.177Z,90.40
2019-05-23T14:17:43.007Z,91.90
2019-05-23T14:20:14.728Z,92.90
2019-05-23T14:25:28.750Z,93.10
2019-05-23T14:28:03.512Z,93.20
2019-05-23T14:30:51.214Z,93.80
2019-05-23T14:36:17.006Z,94.60
2019-05-23T14:41:16.735Z,93.20
2019-05-23T14:43:47.920Z,92.60
2019-05-23T14:51:47.791Z,91.30
2019-05-23T14:56:50.745Z,91.50
2019-05-23T14:59:20.579Z,91.20
2019-05-23T15:01:51.275Z,82.00
2019-05-23T15:04:21.089Z,87.40
2019-05-23T15:09:21.424Z,91.40
2019-05-23T15:11:51.697Z,74.80
2019-05-23T15:16:52.383Z,88.50
2019-05-23T15:21:53.068Z,88.10
2019-05-23T15:26:52.248Z,87.80
2019-05-23T15:29:22.000Z,88.60
2019-05-23T15:34:22.788Z,88.90
2019-05-23T15:39:22.926Z,88.20
2019-05-23T15:41:52.761Z,88.30
2019-05-23T15:44:27.865Z,89.20
2019-05-23T15:46:54.203Z,88.70
2019-05-23T15:49:24.068Z,88.90
2019-05-23T15:52:01.096Z,89.80
2019-05-23T15:57:15.842Z,90.30
2019-05-23T16:02:25.244Z,90.00
2019-05-23T16:04:58.768Z,89.50
2019-05-23T16:07:30.416Z,86.80
2019-05-23T16:10:01.212Z,85.80
2019-05-23T16:17:30.013Z,82.80
2019-05-23T16:27:28.291Z,85.40
2019-05-23T16:29:58.281Z,80.20
2019-05-23T16:34:57.917Z,81.90
2019-05-23T16:37:27.897Z,86.30
2019-05-23T16:52:26.465Z,91.20
2019-05-23T16:54:57.087Z,92.10
2019-05-23T17:00:42.325Z,92.80
2019-05-23T17:06:11.597Z,81.40
2019-05-23T17:11:50.921Z,92.90
2019-05-23T17:41:06.041Z,95.20
2019-05-23T17:43:35.886Z,97.30
2019-05-23T17:53:33.678Z,97.00
2019-05-23T17:56:04.195Z,96.30
2019-05-23T17:58:34.847Z,96.30
2019-05-23T18:33:39.294Z,98.30
2019-05-23T18:38:39.438Z,99.50
2019-05-23T18:43:45.184Z,94.20
2019-05-23T18:46:23.087Z,99.90
2019-05-23T18:48:53.802Z,99.90
2019-05-23T18:53:59.881Z,99.90
2019-05-23T18:56:31.070Z,99.90
2019-05-23T18:59:02.635Z,99.90
2019-05-23T19:11:30.287Z,99.90
2019-05-23T19:14:00.302Z,99.90
2019-05-23T19:19:00.252Z,99.90
2019-05-23T19:23:59.985Z,99.90
2019-05-23T19:26:31.578Z,99.90
2019-05-23T19:29:01.809Z,99.90
2019-05-23T19:36:31.070Z,99.90
2019-05-23T19:41:37.686Z,99.90
2019-05-23T19:44:02.476Z,99.90
2019-05-23T20:14:10.813Z,99.90
2019-05-23T20:21:39.666Z,99.90
2019-05-23T20:24:09.595Z,99.90
2019-05-23T20:26:40.633Z,99.90
2019-05-23T20:51:37.320Z,99.90
2019-05-23T20:54:07.195Z,99.90
2019-05-23T20:56:36.963Z,99.90
2019-05-23T21:01:40.321Z,99.90
2019-05-23T21:04:10.176Z,99.90
2019-05-23T21:11:38.487Z,99.90
2019-05-23T21:14:08.405Z,99.90
2019-05-23T21:21:37.085Z,99.90
2019-05-23T21:24:07.007Z,99.90
2019-05-23T21:31:35.486Z,99.90
2019-05-23T21:51:32.895Z,99.90
2019-05-23T22:09:27.545Z,99.90
2019-05-23T22:14:26.809Z,99.90
2019-05-23T22:19:28.281Z,99.90
2019-05-23T22:21:58.186Z,99.90
2019-05-23T22:26:57.574Z,99.90
2019-05-23T22:37:27.579Z,99.90
2019-05-23T22:47:28.304Z,99.90
2019-05-23T22:52:28.270Z,99.90
2019-05-23T22:57:27.463Z,99.90
2019-05-23T23:12:23.980Z,99.90
2019-05-23T23:17:23.009Z,99.90
2019-05-23T23:19:53.045Z,99.90
2019-05-23T23:22:22.913Z,99.90
2019-05-23T23:27:25.351Z,99.90
2019-05-23T23:29:54.349Z,99.90
2019-05-23T23:34:56.871Z,99.90
2019-05-23T23:39:55.864Z,99.90
2019-05-23T23:50:28.509Z,99.90
2019-05-23T23:53:16.268Z,99.90
2019-05-23T23:56:04.252Z,99.90
2019-05-23T23:58:33.468Z,99.90
